sensor_id;sensor_type;location;lat;lon;timestamp;temperature;humidity
46029;DHT22;31763;48.180;7.904;2023-04-03T00:00:33;4.60;99.90
46029;DHT22;31763;48.180;7.904;2023-04-03T00:03:00;4.70;99.90
46029;DHT22;31763;48.180;7.904;2023-04-03T00:05:27;4.60;99.90
46029;DHT22;31763;48.180;7.904;2023-04-03T00:07:54;4.60;99.90
46029;DHT22;31763;48.180;7.904;2023-04-03T00:10:21;4.50;99.90
46029;DHT22;31763;48.180;7.904;2023-04-03T00:12:47;4.30;99.90
46029;DHT22;31763;48.180;7.904;2023-04-03T00:15:14;4.50;99.90
46029;DHT22;31763;48.180;7.904;2023-04-03T00:17:41;4.30;99.90
46029;DHT22;31763;48.180;7.904;2023-04-03T00:20:08;4.30;99.90
46029;DHT22;31763;48.180;7.904;2023-04-03T00:22:35;4.40;99.90
46029;DHT22;31763;48.180;7.904;2023-04-03T00:25:02;4.30;99.90
46029;DHT22;31763;48.180;7.904;2023-04-03T00:27:29;4.30;99.90
46029;DHT22;31763;48.180;7.904;2023-04-03T00:29:56;4.10;99.90
46029;DHT22;31763;48.180;7.904;2023-04-03T00:32:23;4.20;99.90
46029;DHT22;31763;48.180;7.904;2023-04-03T00:34:49;4.30;99.90
46029;DHT22;31763;48.180;7.904;2023-04-03T00:37:16;4.20;99.90
46029;DHT22;31763;48.180;7.904;2023-04-03T00:39:43;4.20;99.90
46029;DHT22;31763;48.180;7.904;2023-04-03T00:42:09;4.20;99.90
46029;DHT22;31763;48.180;7.904;2023-04-03T00:47:04;4.20;99.90
46029;DHT22;31763;48.180;7.904;2023-04-03T00:49:32;4.20;99.90
46029;DHT22;31763;48.180;7.904;2023-04-03T00:51:59;4.10;99.90
46029;DHT22;31763;48.180;7.904;2023-04-03T00:54:26;4.20;99.90
46029;DHT22;31763;48.180;7.904;2023-04-03T00:56:53;4.40;99.90
46029;DHT22;31763;48.180;7.904;2023-04-03T00:59:23;4.20;99.90
46029;DHT22;31763;48.180;7.904;2023-04-03T01:01:53;4.20;99.90
46029;DHT22;31763;48.180;7.904;2023-04-03T01:04:36;4.10;99.90
46029;DHT22;31763;48.180;7.904;2023-04-03T01:07:08;4.00;99.90
46029;DHT22;31763;48.180;7.904;2023-04-03T01:09:37;4.10;99.90
46029;DHT22;31763;48.180;7.904;2023-04-03T01:14:49;3.90;99.90
46029;DHT22;31763;48.180;7.904;2023-04-03T01:17:26;4.00;99.90
46029;DHT22;31763;48.180;7.904;2023-04-03T01:25:36;3.90;99.90
46029;DHT22;31763;48.180;7.904;2023-04-03T01:28:11;3.80;99.90
46029;DHT22;31763;48.180;7.904;2023-04-03T01:31:01;3.50;99.90
46029;DHT22;31763;48.180;7.904;2023-04-03T01:33:29;3.60;99.90
46029;DHT22;31763;48.180;7.904;2023-04-03T01:35:55;3.80;99.90
46029;DHT22;31763;48.180;7.904;2023-04-03T01:38:22;3.70;99.90
46029;DHT22;31763;48.180;7.904;2023-04-03T01:40:50;3.60;99.90
46029;DHT22;31763;48.180;7.904;2023-04-03T01:43:18;3.70;99.90
46029;DHT22;31763;48.180;7.904;2023-04-03T01:45:45;3.60;99.90
46029;DHT22;31763;48.180;7.904;2023-04-03T01:48:13;3.40;99.90
46029;DHT22;31763;48.180;7.904;2023-04-03T01:50:48;3.60;99.90
46029;DHT22;31763;48.180;7.904;2023-04-03T01:53:17;3.60;99.90
46029;DHT22;31763;48.180;7.904;2023-04-03T01:55:49;3.50;99.90
46029;DHT22;31763;48.180;7.904;2023-04-03T01:58:17;3.40;99.90
46029;DHT22;31763;48.180;7.904;2023-04-03T02:00:46;3.40;99.90
46029;DHT22;31763;48.180;7.904;2023-04-03T02:03:13;3.20;99.90
46029;DHT22;31763;48.180;7.904;2023-04-03T02:05:44;3.20;99.90
46029;DHT22;31763;48.180;7.904;2023-04-03T02:08:12;3.30;99.90
46029;DHT22;31763;48.180;7.904;2023-04-03T02:10:46;3.40;99.90
46029;DHT22;31763;48.180;7.904;2023-04-03T02:13:19;3.20;99.90
46029;DHT22;31763;48.180;7.904;2023-04-03T02:15:48;3.00;99.90
46029;DHT22;31763;48.180;7.904;2023-04-03T02:18:15;3.00;99.90
46029;DHT22;31763;48.180;7.904;2023-04-03T02:20:42;3.20;99.90
46029;DHT22;31763;48.180;7.904;2023-04-03T02:23:09;3.30;99.90
46029;DHT22;31763;48.180;7.904;2023-04-03T02:25:36;3.10;99.90
46029;DHT22;31763;48.180;7.904;2023-04-03T02:28:04;3.20;99.90
46029;DHT22;31763;48.180;7.904;2023-04-03T02:30:31;3.00;99.90
46029;DHT22;31763;48.180;7.904;2023-04-03T02:32:58;3.20;99.90
46029;DHT22;31763;48.180;7.904;2023-04-03T02:35:25;3.20;99.90
46029;DHT22;31763;48.180;7.904;2023-04-03T02:37:52;3.00;99.90
46029;DHT22;31763;48.180;7.904;2023-04-03T02:40:18;2.90;99.90
46029;DHT22;31763;48.180;7.904;2023-04-03T02:42:45;2.90;99.90
46029;DHT22;31763;48.180;7.904;2023-04-03T02:45:12;2.90;99.90
46029;DHT22;31763;48.180;7.904;2023-04-03T02:47:39;3.00;99.90
46029;DHT22;31763;48.180;7.904;2023-04-03T02:50:06;3.10;99.90
46029;DHT22;31763;48.180;7.904;2023-04-03T02:52:33;3.00;99.90
46029;DHT22;31763;48.180;7.904;2023-04-03T02:54:59;3.10;99.90
46029;DHT22;31763;48.180;7.904;2023-04-03T02:57:26;3.10;99.90
46029;DHT22;31763;48.180;7.904;2023-04-03T02:59:53;3.10;99.90
46029;DHT22;31763;48.180;7.904;2023-04-03T03:02:20;3.40;99.90
46029;DHT22;31763;48.180;7.904;2023-04-03T03:04:47;3.20;99.90
46029;DHT22;31763;48.180;7.904;2023-04-03T03:07:14;3.30;99.90
46029;DHT22;31763;48.180;7.904;2023-04-03T03:09:41;3.20;99.90
46029;DHT22;31763;48.180;7.904;2023-04-03T03:12:08;3.20;99.90
46029;DHT22;31763;48.180;7.904;2023-04-03T03:14:34;3.30;99.90
46029;DHT22;31763;48.180;7.904;2023-04-03T03:17:01;3.40;99.90
46029;DHT22;31763;48.180;7.904;2023-04-03T03:19:28;3.20;99.90
46029;DHT22;31763;48.180;7.904;2023-04-03T03:21:55;3.30;99.90
46029;DHT22;31763;48.180;7.904;2023-04-03T03:24:23;3.30;99.90
46029;DHT22;31763;48.180;7.904;2023-04-03T03:26:49;3.20;99.90
46029;DHT22;31763;48.180;7.904;2023-04-03T03:29:16;3.30;99.90
46029;DHT22;31763;48.180;7.904;2023-04-03T03:31:43;3.20;99.90
46029;DHT22;31763;48.180;7.904;2023-04-03T03:34:10;3.20;99.90
46029;DHT22;31763;48.180;7.904;2023-04-03T03:36:36;3.10;99.90
46029;DHT22;31763;48.180;7.904;2023-04-03T03:39:03;3.10;99.90
46029;DHT22;31763;48.180;7.904;2023-04-03T03:41:30;3.00;99.90
46029;DHT22;31763;48.180;7.904;2023-04-03T03:43:57;3.30;99.90
46029;DHT22;31763;48.180;7.904;2023-04-03T03:46:24;3.20;99.90
46029;DHT22;31763;48.180;7.904;2023-04-03T03:48:51;3.20;99.90
46029;DHT22;31763;48.180;7.904;2023-04-03T03:51:17;3.30;99.90
46029;DHT22;31763;48.180;7.904;2023-04-03T03:53:44;3.10;99.90
46029;DHT22;31763;48.180;7.904;2023-04-03T03:56:12;3.30;99.90
46029;DHT22;31763;48.180;7.904;2023-04-03T03:58:38;3.20;99.90
46029;DHT22;31763;48.180;7.904;2023-04-03T04:01:05;3.20;99.90
46029;DHT22;31763;48.180;7.904;2023-04-03T04:03:33;3.00;99.90
46029;DHT22;31763;48.180;7.904;2023-04-03T04:06:00;3.10;99.90
46029;DHT22;31763;48.180;7.904;2023-04-03T04:08:27;3.10;99.90
46029;DHT22;31763;48.180;7.904;2023-04-03T04:10:53;3.10;99.90
46029;DHT22;31763;48.180;7.904;2023-04-03T04:13:20;3.20;99.90
46029;DHT22;31763;48.180;7.904;2023-04-03T04:15:47;3.10;99.90
46029;DHT22;31763;48.180;7.904;2023-04-03T04:18:14;3.10;99.90
46029;DHT22;31763;48.180;7.904;2023-04-03T04:20:41;3.20;99.90
46029;DHT22;31763;48.180;7.904;2023-04-03T04:23:07;3.20;99.90
46029;DHT22;31763;48.180;7.904;2023-04-03T04:25:34;3.20;99.90
46029;DHT22;31763;48.180;7.904;2023-04-03T04:28:01;3.10;99.90
46029;DHT22;31763;48.180;7.904;2023-04-03T04:30:28;3.30;99.90
46029;DHT22;31763;48.180;7.904;2023-04-03T04:32:55;3.20;99.90
46029;DHT22;31763;48.180;7.904;2023-04-03T04:35:21;3.30;99.90
46029;DHT22;31763;48.180;7.904;2023-04-03T04:37:48;3.20;99.90
46029;DHT22;31763;48.180;7.904;2023-04-03T04:40:16;3.20;99.90
46029;DHT22;31763;48.180;7.904;2023-04-03T04:42:43;3.20;99.90
46029;DHT22;31763;48.180;7.904;2023-04-03T04:45:09;3.20;99.90
46029;DHT22;31763;48.180;7.904;2023-04-03T04:47:36;3.40;99.90
46029;DHT22;31763;48.180;7.904;2023-04-03T04:50:03;3.30;99.90
46029;DHT22;31763;48.180;7.904;2023-04-03T04:52:30;3.00;99.90
46029;DHT22;31763;48.180;7.904;2023-04-03T04:54:57;3.30;99.90
46029;DHT22;31763;48.180;7.904;2023-04-03T04:57:24;3.20;99.90
46029;DHT22;31763;48.180;7.904;2023-04-03T04:59:51;3.10;99.90
46029;DHT22;31763;48.180;7.904;2023-04-03T05:02:17;3.30;99.90
46029;DHT22;31763;48.180;7.904;2023-04-03T05:04:44;3.20;99.90
46029;DHT22;31763;48.180;7.904;2023-04-03T05:07:11;3.00;99.90
46029;DHT22;31763;48.180;7.904;2023-04-03T05:09:38;3.00;99.90
46029;DHT22;31763;48.180;7.904;2023-04-03T05:12:05;2.80;99.90
46029;DHT22;31763;48.180;7.904;2023-04-03T05:14:32;2.90;99.90
46029;DHT22;31763;48.180;7.904;2023-04-03T05:16:58;2.80;99.90
46029;DHT22;31763;48.180;7.904;2023-04-03T05:19:25;2.60;99.90
46029;DHT22;31763;48.180;7.904;2023-04-03T05:21:52;2.80;99.90
46029;DHT22;31763;48.180;7.904;2023-04-03T05:24:19;2.90;99.90
46029;DHT22;31763;48.180;7.904;2023-04-03T05:26:45;2.80;99.90
46029;DHT22;31763;48.180;7.904;2023-04-03T05:29:12;2.90;99.90
46029;DHT22;31763;48.180;7.904;2023-04-03T05:31:39;2.80;99.90
46029;DHT22;31763;48.180;7.904;2023-04-03T05:34:06;2.80;99.90
46029;DHT22;31763;48.180;7.904;2023-04-03T05:39:08;2.60;99.90
46029;DHT22;31763;48.180;7.904;2023-04-03T05:41:34;2.60;99.90
46029;DHT22;31763;48.180;7.904;2023-04-03T05:44:01;2.80;99.90
46029;DHT22;31763;48.180;7.904;2023-04-03T05:46:28;2.60;99.90
46029;DHT22;31763;48.180;7.904;2023-04-03T05:48:55;2.40;99.90
46029;DHT22;31763;48.180;7.904;2023-04-03T05:51:22;2.40;99.90
46029;DHT22;31763;48.180;7.904;2023-04-03T05:53:58;2.40;99.90
46029;DHT22;31763;48.180;7.904;2023-04-03T05:56:39;2.50;99.90
46029;DHT22;31763;48.180;7.904;2023-04-03T05:59:06;3.10;99.90
46029;DHT22;31763;48.180;7.904;2023-04-03T06:01:33;3.30;99.90
46029;DHT22;31763;48.180;7.904;2023-04-03T06:04:00;4.00;99.90
46029;DHT22;31763;48.180;7.904;2023-04-03T06:06:42;4.00;99.90
46029;DHT22;31763;48.180;7.904;2023-04-03T06:09:18;3.90;99.90
46029;DHT22;31763;48.180;7.904;2023-04-03T06:11:46;4.30;99.90
46029;DHT22;31763;48.180;7.904;2023-04-03T06:14:12;4.90;99.90
46029;DHT22;31763;48.180;7.904;2023-04-03T06:16:39;5.10;99.90
46029;DHT22;31763;48.180;7.904;2023-04-03T06:19:07;5.10;99.90
46029;DHT22;31763;48.180;7.904;2023-04-03T06:21:34;5.70;99.90
46029;DHT22;31763;48.180;7.904;2023-04-03T06:24:05;4.80;99.90
46029;DHT22;31763;48.180;7.904;2023-04-03T06:26:32;4.90;99.90
46029;DHT22;31763;48.180;7.904;2023-04-03T06:28:59;3.80;99.90
46029;DHT22;31763;48.180;7.904;2023-04-03T06:31:26;4.10;99.90
46029;DHT22;31763;48.180;7.904;2023-04-03T06:33:53;4.90;99.90
46029;DHT22;31763;48.180;7.904;2023-04-03T06:36:20;5.30;99.90
46029;DHT22;31763;48.180;7.904;2023-04-03T06:38:47;4.80;99.90
46029;DHT22;31763;48.180;7.904;2023-04-03T06:41:14;5.00;99.90
46029;DHT22;31763;48.180;7.904;2023-04-03T06:43:45;4.60;99.90
46029;DHT22;31763;48.180;7.904;2023-04-03T06:46:15;4.40;99.90
46029;DHT22;31763;48.180;7.904;2023-04-03T06:48:44;4.90;99.90
46029;DHT22;31763;48.180;7.904;2023-04-03T06:51:14;4.80;99.90
46029;DHT22;31763;48.180;7.904;2023-04-03T06:53:49;5.30;99.90
46029;DHT22;31763;48.180;7.904;2023-04-03T06:56:17;5.40;99.90
46029;DHT22;31763;48.180;7.904;2023-04-03T06:58:44;5.40;99.90
46029;DHT22;31763;48.180;7.904;2023-04-03T07:01:11;5.70;99.90
46029;DHT22;31763;48.180;7.904;2023-04-03T07:03:40;5.80;99.90
46029;DHT22;31763;48.180;7.904;2023-04-03T07:06:07;6.60;99.90
46029;DHT22;31763;48.180;7.904;2023-04-03T07:08:36;6.30;99.90
46029;DHT22;31763;48.180;7.904;2023-04-03T07:11:03;6.00;99.90
46029;DHT22;31763;48.180;7.904;2023-04-03T07:13:30;6.20;99.90
46029;DHT22;31763;48.180;7.904;2023-04-03T07:15:57;6.40;99.90
46029;DHT22;31763;48.180;7.904;2023-04-03T07:18:24;6.00;99.90
46029;DHT22;31763;48.180;7.904;2023-04-03T07:20:51;6.10;99.90
46029;DHT22;31763;48.180;7.904;2023-04-03T07:23:18;6.30;99.90
46029;DHT22;31763;48.180;7.904;2023-04-03T07:25:46;6.40;99.90
46029;DHT22;31763;48.180;7.904;2023-04-03T07:28:13;6.30;99.90
46029;DHT22;31763;48.180;7.904;2023-04-03T07:30:50;6.30;99.90
46029;DHT22;31763;48.180;7.904;2023-04-03T07:33:19;6.30;99.90
46029;DHT22;31763;48.180;7.904;2023-04-03T07:35:47;6.30;99.90
46029;DHT22;31763;48.180;7.904;2023-04-03T07:38:14;6.40;99.90
46029;DHT22;31763;48.180;7.904;2023-04-03T07:40:46;6.10;99.90
46029;DHT22;31763;48.180;7.904;2023-04-03T07:43:14;6.60;99.90
46029;DHT22;31763;48.180;7.904;2023-04-03T07:45:42;6.60;99.90
46029;DHT22;31763;48.180;7.904;2023-04-03T07:48:10;7.30;99.90
46029;DHT22;31763;48.180;7.904;2023-04-03T07:50:39;6.30;99.90
46029;DHT22;31763;48.180;7.904;2023-04-03T07:53:07;6.10;99.90
46029;DHT22;31763;48.180;7.904;2023-04-03T07:55:34;6.30;99.90
46029;DHT22;31763;48.180;7.904;2023-04-03T07:58:03;6.40;99.90
46029;DHT22;31763;48.180;7.904;2023-04-03T08:00:31;6.90;99.90
46029;DHT22;31763;48.180;7.904;2023-04-03T08:02:57;5.90;99.90
46029;DHT22;31763;48.180;7.904;2023-04-03T08:05:24;6.50;99.90
46029;DHT22;31763;48.180;7.904;2023-04-03T08:07:51;6.90;99.90
46029;DHT22;31763;48.180;7.904;2023-04-03T08:10:18;7.40;99.90
46029;DHT22;31763;48.180;7.904;2023-04-03T08:12:46;6.90;99.90
46029;DHT22;31763;48.180;7.904;2023-04-03T08:15:13;6.70;99.90
46029;DHT22;31763;48.180;7.904;2023-04-03T08:17:40;5.80;99.90
46029;DHT22;31763;48.180;7.904;2023-04-03T08:20:07;5.50;99.90
46029;DHT22;31763;48.180;7.904;2023-04-03T08:22:34;6.20;99.90
46029;DHT22;31763;48.180;7.904;2023-04-03T08:25:01;5.50;99.90
46029;DHT22;31763;48.180;7.904;2023-04-03T08:27:28;5.70;99.90
46029;DHT22;31763;48.180;7.904;2023-04-03T08:29:55;6.00;99.90
46029;DHT22;31763;48.180;7.904;2023-04-03T08:32:23;5.50;99.90
46029;DHT22;31763;48.180;7.904;2023-04-03T08:34:50;5.10;99.90
46029;DHT22;31763;48.180;7.904;2023-04-03T08:37:17;4.90;99.90
46029;DHT22;31763;48.180;7.904;2023-04-03T08:39:44;4.80;99.90
46029;DHT22;31763;48.180;7.904;2023-04-03T08:42:15;4.20;99.90
46029;DHT22;31763;48.180;7.904;2023-04-03T08:44:47;4.00;99.90
46029;DHT22;31763;48.180;7.904;2023-04-03T08:47:26;4.00;99.90
46029;DHT22;31763;48.180;7.904;2023-04-03T08:50:00;4.20;99.90
46029;DHT22;31763;48.180;7.904;2023-04-03T08:55:04;4.30;99.90
46029;DHT22;31763;48.180;7.904;2023-04-03T08:57:34;4.00;99.90
46029;DHT22;31763;48.180;7.904;2023-04-03T09:00:05;4.20;99.90
46029;DHT22;31763;48.180;7.904;2023-04-03T09:02:46;4.50;99.90
46029;DHT22;31763;48.180;7.904;2023-04-03T09:05:18;4.60;99.90
46029;DHT22;31763;48.180;7.904;2023-04-03T09:08:24;4.50;99.90
46029;DHT22;31763;48.180;7.904;2023-04-03T09:11:16;4.50;99.90
46029;DHT22;31763;48.180;7.904;2023-04-03T09:14:01;4.30;99.90
46029;DHT22;31763;48.180;7.904;2023-04-03T09:16:33;4.30;99.90
46029;DHT22;31763;48.180;7.904;2023-04-03T09:19:16;4.60;99.90
46029;DHT22;31763;48.180;7.904;2023-04-03T09:21:48;4.50;99.90
46029;DHT22;31763;48.180;7.904;2023-04-03T09:24:15;5.10;99.90
46029;DHT22;31763;48.180;7.904;2023-04-03T09:29:18;4.80;99.90
46029;DHT22;31763;48.180;7.904;2023-04-03T09:31:47;5.00;99.90
46029;DHT22;31763;48.180;7.904;2023-04-03T09:34:23;4.90;99.90
46029;DHT22;31763;48.180;7.904;2023-04-03T09:36:56;5.00;99.90
46029;DHT22;31763;48.180;7.904;2023-04-03T09:39:33;4.90;99.90
46029;DHT22;31763;48.180;7.904;2023-04-03T09:42:27;5.10;99.90
46029;DHT22;31763;48.180;7.904;2023-04-03T09:45:04;5.20;99.90
46029;DHT22;31763;48.180;7.904;2023-04-03T09:53:39;5.10;99.90
46029;DHT22;31763;48.180;7.904;2023-04-03T09:56:26;5.30;99.90
46029;DHT22;31763;48.180;7.904;2023-04-03T10:01:35;5.80;99.90
46029;DHT22;31763;48.180;7.904;2023-04-03T10:04:13;5.90;99.90
46029;DHT22;31763;48.180;7.904;2023-04-03T10:06:52;6.00;99.90
46029;DHT22;31763;48.180;7.904;2023-04-03T10:09:24;6.00;99.90
46029;DHT22;31763;48.180;7.904;2023-04-03T10:14:33;5.20;99.90
46029;DHT22;31763;48.180;7.904;2023-04-03T10:17:17;5.60;99.90
46029;DHT22;31763;48.180;7.904;2023-04-03T10:22:37;5.50;99.90
46029;DHT22;31763;48.180;7.904;2023-04-03T10:25:33;5.60;99.90
46029;DHT22;31763;48.180;7.904;2023-04-03T10:28:25;5.90;99.90
46029;DHT22;31763;48.180;7.904;2023-04-03T10:42:52;5.80;99.90
46029;DHT22;31763;48.180;7.904;2023-04-03T10:48:14;5.90;99.90
46029;DHT22;31763;48.180;7.904;2023-04-03T10:51:00;5.80;99.90
46029;DHT22;31763;48.180;7.904;2023-04-03T10:53:36;5.90;99.90
46029;DHT22;31763;48.180;7.904;2023-04-03T10:56:12;5.90;99.90
46029;DHT22;31763;48.180;7.904;2023-04-03T10:58:54;6.00;99.90
46029;DHT22;31763;48.180;7.904;2023-04-03T11:01:32;6.00;99.90
46029;DHT22;31763;48.180;7.904;2023-04-03T11:04:00;5.90;99.90
46029;DHT22;31763;48.180;7.904;2023-04-03T11:09:30;5.80;99.90
46029;DHT22;31763;48.180;7.904;2023-04-03T11:14:43;5.80;99.90
46029;DHT22;31763;48.180;7.904;2023-04-03T11:17:15;5.50;99.90
46029;DHT22;31763;48.180;7.904;2023-04-03T11:19:54;5.50;99.90
46029;DHT22;31763;48.180;7.904;2023-04-03T11:22:28;5.40;99.90
46029;DHT22;31763;48.180;7.904;2023-04-03T11:25:20;5.30;99.90
46029;DHT22;31763;48.180;7.904;2023-04-03T11:27:49;5.20;99.90
46029;DHT22;31763;48.180;7.904;2023-04-03T11:30:22;5.30;99.90
46029;DHT22;31763;48.180;7.904;2023-04-03T11:32:59;5.40;99.90
46029;DHT22;31763;48.180;7.904;2023-04-03T11:35:32;5.30;99.90
46029;DHT22;31763;48.180;7.904;2023-04-03T11:37:59;5.50;99.90
46029;DHT22;31763;48.180;7.904;2023-04-03T11:40:28;5.40;99.90
46029;DHT22;31763;48.180;7.904;2023-04-03T11:45:37;5.60;99.90
46029;DHT22;31763;48.180;7.904;2023-04-03T11:50:50;5.70;99.90
46029;DHT22;31763;48.180;7.904;2023-04-03T11:53:34;5.90;99.90
46029;DHT22;31763;48.180;7.904;2023-04-03T11:56:03;6.00;99.90
46029;DHT22;31763;48.180;7.904;2023-04-03T11:59:36;5.80;99.90
46029;DHT22;31763;48.180;7.904;2023-04-03T12:04:15;5.90;99.90
46029;DHT22;31763;48.180;7.904;2023-04-03T12:11:54;5.90;99.90
46029;DHT22;31763;48.180;7.904;2023-04-03T12:14:22;6.00;99.90
46029;DHT22;31763;48.180;7.904;2023-04-03T12:16:51;5.80;99.90
46029;DHT22;31763;48.180;7.904;2023-04-03T12:24:24;6.00;99.90
46029;DHT22;31763;48.180;7.904;2023-04-03T12:35:10;6.00;99.90
46029;DHT22;31763;48.180;7.904;2023-04-03T12:46:36;5.80;99.90
46029;DHT22;31763;48.180;7.904;2023-04-03T12:49:33;6.00;99.90
46029;DHT22;31763;48.180;7.904;2023-04-03T12:55:32;6.10;99.90
46029;DHT22;31763;48.180;7.904;2023-04-03T13:01:09;5.90;99.90
46029;DHT22;31763;48.180;7.904;2023-04-03T13:13:59;5.90;99.90
46029;DHT22;31763;48.180;7.904;2023-04-03T13:16:28;6.00;99.90
46029;DHT22;31763;48.180;7.904;2023-04-03T13:18:55;6.00;99.90
46029;DHT22;31763;48.180;7.904;2023-04-03T13:21:31;5.90;99.90
46029;DHT22;31763;48.180;7.904;2023-04-03T13:24:00;6.00;99.90
46029;DHT22;31763;48.180;7.904;2023-04-03T13:26:40;6.10;99.90
46029;DHT22;31763;48.180;7.904;2023-04-03T13:29:16;5.90;99.90
46029;DHT22;31763;48.180;7.904;2023-04-03T13:31:56;6.00;99.90
46029;DHT22;31763;48.180;7.904;2023-04-03T13:34:25;5.90;99.90
46029;DHT22;31763;48.180;7.904;2023-04-03T13:36:58;5.90;99.90
46029;DHT22;31763;48.180;7.904;2023-04-03T13:39:28;5.90;99.90
46029;DHT22;31763;48.180;7.904;2023-04-03T13:41:57;6.10;99.90
46029;DHT22;31763;48.180;7.904;2023-04-03T13:44:32;6.20;99.90
46029;DHT22;31763;48.180;7.904;2023-04-03T13:49:41;6.30;99.90
46029;DHT22;31763;48.180;7.904;2023-04-03T13:52:22;6.50;99.90
46029;DHT22;31763;48.180;7.904;2023-04-03T13:55:25;6.40;99.90
46029;DHT22;31763;48.180;7.904;2023-04-03T14:03:23;6.00;99.90
46029;DHT22;31763;48.180;7.904;2023-04-03T14:05:50;6.00;99.90
46029;DHT22;31763;48.180;7.904;2023-04-03T14:08:17;6.30;99.90
46029;DHT22;31763;48.180;7.904;2023-04-03T14:10:57;6.40;99.90
46029;DHT22;31763;48.180;7.904;2023-04-03T14:13:24;6.20;99.90
46029;DHT22;31763;48.180;7.904;2023-04-03T14:15:51;6.50;99.90
46029;DHT22;31763;48.180;7.904;2023-04-03T14:18:20;6.50;99.90
46029;DHT22;31763;48.180;7.904;2023-04-03T14:20:47;6.40;99.90
46029;DHT22;31763;48.180;7.904;2023-04-03T14:23:14;6.50;99.90
46029;DHT22;31763;48.180;7.904;2023-04-03T14:25:41;6.20;99.90
46029;DHT22;31763;48.180;7.904;2023-04-03T14:28:16;6.30;99.90
46029;DHT22;31763;48.180;7.904;2023-04-03T14:30:48;6.20;99.90
46029;DHT22;31763;48.180;7.904;2023-04-03T14:33:17;6.50;99.90
46029;DHT22;31763;48.180;7.904;2023-04-03T14:35:47;6.40;99.90
46029;DHT22;31763;48.180;7.904;2023-04-03T14:38:22;6.30;99.90
46029;DHT22;31763;48.180;7.904;2023-04-03T14:40:52;6.20;99.90
46029;DHT22;31763;48.180;7.904;2023-04-03T14:43:22;6.40;99.90
46029;DHT22;31763;48.180;7.904;2023-04-03T14:45:49;6.10;99.90
46029;DHT22;31763;48.180;7.904;2023-04-03T14:48:21;6.30;99.90
46029;DHT22;31763;48.180;7.904;2023-04-03T14:50:49;7.00;99.90
46029;DHT22;31763;48.180;7.904;2023-04-03T14:53:31;6.30;99.90
46029;DHT22;31763;48.180;7.904;2023-04-03T14:56:09;6.30;99.90
46029;DHT22;31763;48.180;7.904;2023-04-03T14:58:37;6.20;99.90
46029;DHT22;31763;48.180;7.904;2023-04-03T15:01:04;6.20;99.90
46029;DHT22;31763;48.180;7.904;2023-04-03T15:03:31;6.20;99.90
46029;DHT22;31763;48.180;7.904;2023-04-03T15:05:58;6.20;99.90
46029;DHT22;31763;48.180;7.904;2023-04-03T15:08:26;5.90;99.90
46029;DHT22;31763;48.180;7.904;2023-04-03T15:10:55;6.10;99.90
46029;DHT22;31763;48.180;7.904;2023-04-03T15:13:23;5.90;99.90
46029;DHT22;31763;48.180;7.904;2023-04-03T15:15:50;5.80;99.90
46029;DHT22;31763;48.180;7.904;2023-04-03T15:18:18;5.80;99.90
46029;DHT22;31763;48.180;7.904;2023-04-03T15:20:46;5.80;99.90
46029;DHT22;31763;48.180;7.904;2023-04-03T15:23:15;5.90;99.90
46029;DHT22;31763;48.180;7.904;2023-04-03T15:25:43;6.00;99.90
46029;DHT22;31763;48.180;7.904;2023-04-03T15:28:26;6.10;99.90
46029;DHT22;31763;48.180;7.904;2023-04-03T15:30:56;6.00;99.90
46029;DHT22;31763;48.180;7.904;2023-04-03T15:33:24;5.90;99.90
46029;DHT22;31763;48.180;7.904;2023-04-03T15:35:51;5.60;99.90
46029;DHT22;31763;48.180;7.904;2023-04-03T15:38:19;6.00;99.90
46029;DHT22;31763;48.180;7.904;2023-04-03T15:40:46;5.90;99.90
46029;DHT22;31763;48.180;7.904;2023-04-03T15:43:15;5.90;99.90
46029;DHT22;31763;48.180;7.904;2023-04-03T15:45:43;5.90;99.90
46029;DHT22;31763;48.180;7.904;2023-04-03T15:48:11;5.90;99.90
46029;DHT22;31763;48.180;7.904;2023-04-03T15:50:38;5.70;99.90
46029;DHT22;31763;48.180;7.904;2023-04-03T15:53:06;5.80;99.90
46029;DHT22;31763;48.180;7.904;2023-04-03T15:55:34;5.80;99.90
46029;DHT22;31763;48.180;7.904;2023-04-03T15:58:02;5.80;99.90
46029;DHT22;31763;48.180;7.904;2023-04-03T16:00:29;5.70;99.90
46029;DHT22;31763;48.180;7.904;2023-04-03T16:03:01;5.60;99.90
46029;DHT22;31763;48.180;7.904;2023-04-03T16:05:31;5.50;99.90
46029;DHT22;31763;48.180;7.904;2023-04-03T16:07:59;5.50;99.90
46029;DHT22;31763;48.180;7.904;2023-04-03T16:10:26;5.50;99.90
46029;DHT22;31763;48.180;7.904;2023-04-03T16:12:54;5.50;99.90
46029;DHT22;31763;48.180;7.904;2023-04-03T16:15:21;5.50;99.90
46029;DHT22;31763;48.180;7.904;2023-04-03T16:17:48;5.60;99.90
46029;DHT22;31763;48.180;7.904;2023-04-03T16:20:15;5.40;99.90
46029;DHT22;31763;48.180;7.904;2023-04-03T16:22:43;5.40;99.90
46029;DHT22;31763;48.180;7.904;2023-04-03T16:25:10;5.50;99.90
46029;DHT22;31763;48.180;7.904;2023-04-03T16:27:37;5.40;99.90
46029;DHT22;31763;48.180;7.904;2023-04-03T16:30:05;5.20;99.90
46029;DHT22;31763;48.180;7.904;2023-04-03T16:32:32;5.20;99.90
46029;DHT22;31763;48.180;7.904;2023-04-03T16:34:59;5.20;99.90
46029;DHT22;31763;48.180;7.904;2023-04-03T16:37:27;5.30;99.90
46029;DHT22;31763;48.180;7.904;2023-04-03T16:39:55;5.20;99.90
46029;DHT22;31763;48.180;7.904;2023-04-03T16:42:24;5.30;99.90
46029;DHT22;31763;48.180;7.904;2023-04-03T16:44:51;5.20;99.90
46029;DHT22;31763;48.180;7.904;2023-04-03T16:47:18;5.10;99.90
46029;DHT22;31763;48.180;7.904;2023-04-03T16:49:45;5.30;99.90
46029;DHT22;31763;48.180;7.904;2023-04-03T16:52:13;5.20;99.90
46029;DHT22;31763;48.180;7.904;2023-04-03T16:54:40;5.00;99.90
46029;DHT22;31763;48.180;7.904;2023-04-03T16:57:07;5.10;99.90
46029;DHT22;31763;48.180;7.904;2023-04-03T16:59:33;5.00;99.90
46029;DHT22;31763;48.180;7.904;2023-04-03T17:02:00;5.10;99.90
46029;DHT22;31763;48.180;7.904;2023-04-03T17:04:27;5.00;99.90
46029;DHT22;31763;48.180;7.904;2023-04-03T17:06:54;5.00;99.90
46029;DHT22;31763;48.180;7.904;2023-04-03T17:09:21;4.60;99.90
46029;DHT22;31763;48.180;7.904;2023-04-03T17:11:49;4.60;99.90
46029;DHT22;31763;48.180;7.904;2023-04-03T17:14:15;4.60;99.90
46029;DHT22;31763;48.180;7.904;2023-04-03T17:16:42;4.60;99.90
46029;DHT22;31763;48.180;7.904;2023-04-03T17:19:09;4.60;99.90
46029;DHT22;31763;48.180;7.904;2023-04-03T17:21:38;4.50;99.90
46029;DHT22;31763;48.180;7.904;2023-04-03T17:24:05;4.60;99.90
46029;DHT22;31763;48.180;7.904;2023-04-03T17:26:34;4.40;99.90
46029;DHT22;31763;48.180;7.904;2023-04-03T17:29:03;4.30;99.90
46029;DHT22;31763;48.180;7.904;2023-04-03T17:31:30;4.40;99.90
46029;DHT22;31763;48.180;7.904;2023-04-03T17:33:57;4.50;99.90
46029;DHT22;31763;48.180;7.904;2023-04-03T17:36:30;4.50;99.90
46029;DHT22;31763;48.180;7.904;2023-04-03T17:38:58;4.60;99.90
46029;DHT22;31763;48.180;7.904;2023-04-03T17:41:25;4.40;99.90
46029;DHT22;31763;48.180;7.904;2023-04-03T17:43:52;4.30;99.90
46029;DHT22;31763;48.180;7.904;2023-04-03T17:46:22;4.30;99.90
46029;DHT22;31763;48.180;7.904;2023-04-03T17:48:51;4.40;99.90
46029;DHT22;31763;48.180;7.904;2023-04-03T17:51:19;4.30;99.90
46029;DHT22;31763;48.180;7.904;2023-04-03T17:53:49;4.20;99.90